createdAt,value
2023-09-03T00:01:32.892Z,1.10
2023-09-03T00:11:35.708Z,1.00
2023-09-03T00:21:39.889Z,1.20
2023-09-03T00:31:42.744Z,1.70
2023-09-03T00:41:46.985Z,1.40
2023-09-03T00:51:50.111Z,1.23
2023-09-03T01:01:54.859Z,1.13
2023-09-03T01:12:02.861Z,1.38
2023-09-03T01:22:11.854Z,1.27
2023-09-03T01:32:16.502Z,1.60
2023-09-03T01:42:19.415Z,1.35
2023-09-03T01:52:31.142Z,1.60
2023-09-03T02:02:35.638Z,1.70
2023-09-03T02:12:39.930Z,1.80
2023-09-03T02:22:42.908Z,1.80
2023-09-03T02:32:47.152Z,1.83
2023-09-03T02:42:50.028Z,1.50
2023-09-03T02:52:54.209Z,1.60
2023-09-03T03:02:58.791Z,1.52
2023-09-03T03:13:02.987Z,1.63
2023-09-03T03:23:06.187Z,1.48
2023-09-03T03:33:10.535Z,1.50
2023-09-03T03:43:18.637Z,1.45
2023-09-03T03:53:26.578Z,1.83
2023-09-03T04:03:30.248Z,1.65
2023-09-03T04:13:37.607Z,1.27
2023-09-03T04:23:41.779Z,1.30
2023-09-03T04:33:46.126Z,1.58
2023-09-03T04:43:49.010Z,1.90
2023-09-03T04:53:53.223Z,1.40
2023-09-03T05:03:56.106Z,1.88
2023-09-03T05:14:00.316Z,1.50
2023-09-03T05:24:04.749Z,1.45
2023-09-03T05:34:09.007Z,1.27
2023-09-03T05:44:11.810Z,1.65
2023-09-03T05:54:16.160Z,1.40
2023-09-03T06:04:19.021Z,1.60
2023-09-03T06:14:23.197Z,1.70
2023-09-03T06:24:28.710Z,1.60
2023-09-03T06:34:36.376Z,1.50
2023-09-03T06:44:40.068Z,1.90
2023-09-03T06:54:45.722Z,2.30
2023-09-03T07:04:48.759Z,2.50
2023-09-03T07:14:54.480Z,2.70
2023-09-03T07:24:57.614Z,3.58
2023-09-03T07:35:04.271Z,4.72
2023-09-03T07:45:08.178Z,5.43
2023-09-03T07:55:12.435Z,4.53
2023-09-03T08:05:15.394Z,4.95
2023-09-03T08:15:29.893Z,5.20
2023-09-03T08:25:36.625Z,4.53
2023-09-03T08:35:40.801Z,3.90
2023-09-03T08:45:47.966Z,4.45
2023-09-03T08:55:52.253Z,4.40
2023-09-03T09:05:55.145Z,4.40
2023-09-03T09:15:59.460Z,3.83
2023-09-03T09:26:02.323Z,4.55
2023-09-03T09:36:13.264Z,4.65
2023-09-03T09:46:27.139Z,4.67
2023-09-03T09:56:33.989Z,4.60
2023-09-03T10:06:37.004Z,4.47
2023-09-03T10:16:41.311Z,4.82
2023-09-03T10:26:46.621Z,5.55
2023-09-03T10:37:07.316Z,4.47
2023-09-03T10:47:11.919Z,4.05
2023-09-03T10:57:20.129Z,3.90
2023-09-03T11:07:25.043Z,4.20
2023-09-03T11:17:29.298Z,3.65
2023-09-03T11:27:32.211Z,4.22
2023-09-03T11:37:38.649Z,3.92
2023-09-03T11:47:41.767Z,3.80
2023-09-03T11:57:47.469Z,4.88
2023-09-03T12:07:50.291Z,3.08
2023-09-03T12:17:54.692Z,3.50
2023-09-03T12:27:57.540Z,3.25
2023-09-03T12:38:02.893Z,3.00
2023-09-03T12:48:06.020Z,2.90
2023-09-03T12:58:10.698Z,2.80
2023-09-03T13:08:13.532Z,2.20
2023-09-03T13:18:17.686Z,2.40
2023-09-03T13:28:20.512Z,2.60
2023-09-03T13:38:25.242Z,2.55
2023-09-03T13:48:28.194Z,2.28
2023-09-03T13:58:32.411Z,2.80
2023-09-03T14:08:35.266Z,2.20
2023-09-03T14:18:39.486Z,1.90
2023-09-03T14:28:42.284Z,1.98
2023-09-03T14:38:46.437Z,1.83
2023-09-03T14:48:49.857Z,1.90
2023-09-03T14:58:54.036Z,1.90
2023-09-03T15:08:56.818Z,1.90
2023-09-03T15:19:01.004Z,1.90
2023-09-03T15:29:04.446Z,1.60
2023-09-03T15:39:08.745Z,1.70
2023-09-03T15:49:11.903Z,1.85
2023-09-03T15:59:16.122Z,1.77
2023-09-03T16:09:19.169Z,1.55
2023-09-03T16:19:23.759Z,1.30
2023-09-03T16:29:26.595Z,1.52
2023-09-03T16:39:31.364Z,2.25
2023-09-03T16:49:34.168Z,1.92
2023-09-03T16:59:38.462Z,1.67
2023-09-03T17:09:41.306Z,1.50
2023-09-03T17:19:45.489Z,1.75
2023-09-03T17:29:48.461Z,1.50
2023-09-03T17:39:54.268Z,1.70
2023-09-03T17:49:57.168Z,1.60
2023-09-03T18:00:04.381Z,1.58
2023-09-03T18:10:08.234Z,1.70
2023-09-03T18:20:12.610Z,1.65
2023-09-03T18:30:15.497Z,1.83
2023-09-03T18:40:19.783Z,2.03
2023-09-03T18:50:22.588Z,1.95
2023-09-03T19:00:26.848Z,1.80
2023-09-03T19:10:31.574Z,2.20
2023-09-03T19:20:37.492Z,1.77
2023-09-03T19:30:40.497Z,1.85
2023-09-03T19:40:46.191Z,2.20
2023-09-03T19:50:49.477Z,1.70
2023-09-03T20:00:54.208Z,1.83
2023-09-03T20:10:58.687Z,2.22
2023-09-03T20:21:03.459Z,1.60
2023-09-03T20:31:06.427Z,2.00
2023-09-03T20:41:10.687Z,1.77
2023-09-03T20:51:13.767Z,2.00
2023-09-03T21:01:17.980Z,1.63
2023-09-03T21:11:20.772Z,1.85
2023-09-03T21:21:25.109Z,2.30
2023-09-03T21:31:27.948Z,2.10
2023-09-03T21:41:32.125Z,2.15
2023-09-03T21:51:37.981Z,2.10
2023-09-03T22:01:42.284Z,2.50
2023-09-03T22:11:45.175Z,1.80
2023-09-03T22:21:49.329Z,2.60
2023-09-03T22:31:52.170Z,1.75
2023-09-03T22:41:56.949Z,2.28
2023-09-03T22:51:59.782Z,2.20
2023-09-03T23:02:04.462Z,2.00
2023-09-03T23:12:07.621Z,2.50
2023-09-03T23:22:12.482Z,2.42
2023-09-03T23:32:15.497Z,2.38
2023-09-03T23:42:19.670Z,2.80
2023-09-03T23:52:22.867Z,2.80
